createdAt,value
2019-03-20T00:00:11.409Z,99506.37
2019-03-20T00:04:17.891Z,99501.66
2019-03-20T00:08:22.787Z,99499.09
2019-03-20T00:12:27.677Z,99500.13
2019-03-20T00:16:32.566Z,99500.05
2019-03-20T00:20:37.465Z,99496.17
2019-03-20T00:24:42.351Z,99500.42
2019-03-20T00:28:47.242Z,99502.12
2019-03-20T00:32:52.132Z,99500.98
2019-03-20T00:36:58.189Z,99504.62
2019-03-20T00:41:03.087Z,99506.91
2019-03-20T00:45:11.016Z,99501.23
2019-03-20T00:49:15.906Z,99498.19
2019-03-20T00:53:20.801Z,99499.16
2019-03-20T00:57:25.687Z,99503.08
2019-03-20T01:01:30.579Z,99492.14
2019-03-20T01:05:35.528Z,99488.08
2019-03-20T01:09:40.417Z,99486.42
2019-03-20T01:13:46.273Z,99490.90
2019-03-20T01:17:51.163Z,99487.91
2019-03-20T01:21:56.052Z,99484.05
2019-03-20T01:26:00.928Z,99488.02
2019-03-20T01:30:08.927Z,99482.17
2019-03-20T01:34:13.817Z,99472.26
2019-03-20T01:38:18.710Z,99472.12
2019-03-20T01:42:23.595Z,99474.84
2019-03-20T01:46:28.477Z,99478.80
2019-03-20T01:50:33.376Z,99478.52
2019-03-20T01:54:38.262Z,99487.47
2019-03-20T01:58:43.147Z,99496.58
2019-03-20T02:02:48.041Z,99494.77
2019-03-20T02:06:52.921Z,99483.46
2019-03-20T02:10:57.807Z,99492.38
2019-03-20T02:15:02.874Z,99491.41
2019-03-20T02:19:08.831Z,99491.73
2019-03-20T02:23:13.714Z,99501.67
2019-03-20T02:27:18.590Z,99511.89
2019-03-20T02:31:23.482Z,99507.75
2019-03-20T02:35:28.378Z,99515.55
2019-03-20T02:39:33.270Z,99513.59
2019-03-20T02:43:38.167Z,99506.17
2019-03-20T02:47:43.209Z,99517.75
2019-03-20T02:51:48.076Z,99514.66
2019-03-20T02:55:52.967Z,99516.58
2019-03-20T02:59:57.862Z,99521.33
2019-03-20T03:04:02.747Z,99517.88
2019-03-20T03:08:07.631Z,99515.05
2019-03-20T03:12:12.515Z,99509.42
2019-03-20T03:16:17.408Z,99511.93
2019-03-20T03:20:22.310Z,99518.08
2019-03-20T03:24:27.195Z,99513.17
2019-03-20T03:28:32.075Z,99514.11
2019-03-20T03:32:36.967Z,99511.17
2019-03-20T03:36:41.853Z,99509.12
2019-03-20T03:40:46.920Z,99519.84
2019-03-20T03:44:51.809Z,99516.91
2019-03-20T03:48:56.698Z,99515.14
2019-03-20T03:53:01.601Z,99513.05
2019-03-20T03:57:06.476Z,99512.75
2019-03-20T04:01:11.372Z,99511.18
2019-03-20T04:05:16.547Z,99517.80
2019-03-20T04:09:21.410Z,99516.80
2019-03-20T04:13:26.298Z,99522.00
2019-03-20T04:17:32.223Z,99527.69
2019-03-20T04:21:37.124Z,99530.55
2019-03-20T04:25:42.017Z,99525.17
2019-03-20T04:29:46.900Z,99518.37
2019-03-20T04:33:51.783Z,99526.52
2019-03-20T04:37:56.674Z,99520.77
2019-03-20T04:42:01.564Z,99521.94
2019-03-20T04:46:06.454Z,99520.70
2019-03-20T04:50:14.391Z,99539.78
2019-03-20T04:54:19.317Z,99548.47
2019-03-20T04:58:24.179Z,99560.17
2019-03-20T05:02:30.137Z,99568.59
2019-03-20T05:06:35.036Z,99570.88
2019-03-20T05:10:40.991Z,99568.49
2019-03-20T05:14:45.890Z,99575.94
2019-03-20T05:18:50.787Z,99575.31
2019-03-20T05:22:55.684Z,99570.83
2019-03-20T05:27:00.581Z,99568.80
2019-03-20T05:31:05.471Z,99569.27
2019-03-20T05:35:11.029Z,99576.72
2019-03-20T05:39:16.032Z,99579.08
2019-03-20T05:43:20.887Z,99579.34
2019-03-20T05:47:25.782Z,99587.02
2019-03-20T05:51:30.659Z,99593.31
2019-03-20T05:55:35.554Z,99601.43
2019-03-20T05:59:40.459Z,99604.91
2019-03-20T06:03:45.344Z,99605.96
2019-03-20T06:07:50.305Z,99606.95
2019-03-20T06:11:55.188Z,99605.98
2019-03-20T06:16:00.084Z,99610.02
2019-03-20T06:20:07.821Z,99614.52
2019-03-20T06:24:12.716Z,99610.66
2019-03-20T06:28:17.615Z,99611.90
2019-03-20T06:32:22.495Z,99614.59
2019-03-20T06:36:28.421Z,99620.69
2019-03-20T06:40:33.355Z,99627.05
2019-03-20T06:44:38.255Z,99631.47
2019-03-20T06:48:43.152Z,99635.67
2019-03-20T06:52:48.030Z,99644.16
2019-03-20T06:56:52.928Z,99649.41
2019-03-20T07:01:10.219Z,99651.27
2019-03-20T07:05:23.737Z,99650.31
2019-03-20T07:09:37.558Z,99644.17
2019-03-20T07:13:42.437Z,99645.28
2019-03-20T07:17:47.335Z,99644.66
2019-03-20T07:21:52.248Z,99646.21
2019-03-20T07:25:57.145Z,99646.92
2019-03-20T07:30:02.048Z,99649.80
2019-03-20T07:34:07.911Z,99640.59
2019-03-20T07:38:12.869Z,99642.11
2019-03-20T07:42:18.732Z,99638.65
2019-03-20T07:46:23.623Z,99650.08
2019-03-20T07:50:28.532Z,99651.99
2019-03-20T07:54:33.439Z,99655.26
2019-03-20T07:58:38.325Z,99663.72
2019-03-20T08:02:43.217Z,99663.07
2019-03-20T08:06:49.188Z,99670.66
2019-03-20T08:10:54.087Z,99676.06
2019-03-20T08:14:58.983Z,99677.99
2019-03-20T08:19:03.866Z,99680.39
2019-03-20T08:23:08.761Z,99690.08
2019-03-20T08:27:13.660Z,99701.97
2019-03-20T08:31:18.552Z,99706.05
2019-03-20T08:35:23.448Z,99702.34
2019-03-20T08:39:28.336Z,99710.25
2019-03-20T08:43:33.228Z,99700.81
2019-03-20T08:47:38.123Z,99700.48
2019-03-20T08:51:43.011Z,99700.08
2019-03-20T08:55:48.719Z,99707.95
2019-03-20T08:59:53.613Z,99708.81
2019-03-20T09:03:58.515Z,99697.51
2019-03-20T09:08:03.404Z,99704.01
2019-03-20T09:12:09.259Z,99705.73
2019-03-20T09:16:14.148Z,99702.66
2019-03-20T09:20:25.497Z,99711.74
2019-03-20T09:24:30.385Z,99697.37
2019-03-20T09:28:35.282Z,99711.23
2019-03-20T09:32:40.168Z,99705.52
2019-03-20T09:36:45.059Z,99712.89
2019-03-20T09:40:49.936Z,99714.55
2019-03-20T09:44:54.834Z,99716.23
2019-03-20T09:48:59.724Z,99717.02
2019-03-20T09:53:05.587Z,99719.08
2019-03-20T09:57:10.497Z,99728.97
2019-03-20T10:01:15.384Z,99722.28
2019-03-20T10:05:20.392Z,99720.77
2019-03-20T10:09:26.252Z,99724.99
2019-03-20T10:13:31.150Z,99720.52
2019-03-20T10:17:36.058Z,99729.97
2019-03-20T10:21:40.948Z,99721.38
2019-03-20T10:25:45.842Z,99720.75
2019-03-20T10:29:50.737Z,99718.77
2019-03-20T10:33:55.638Z,99722.01
2019-03-20T10:38:00.543Z,99721.83
2019-03-20T10:42:05.427Z,99723.44
2019-03-20T10:46:10.374Z,99724.22
2019-03-20T10:50:21.419Z,99713.53
2019-03-20T10:54:27.557Z,99711.06
2019-03-20T10:58:32.478Z,99706.02
2019-03-20T11:02:37.363Z,99709.23
2019-03-20T11:06:42.278Z,99702.02
2019-03-20T11:10:47.250Z,99696.61
2019-03-20T11:14:52.157Z,99691.20
2019-03-20T11:18:57.078Z,99697.33
2019-03-20T11:23:01.965Z,99699.91
2019-03-20T11:27:06.866Z,99703.86
2019-03-20T11:31:12.738Z,99701.94
2019-03-20T11:35:17.643Z,99704.90
2019-03-20T11:39:29.483Z,99696.52
2019-03-20T11:43:29.145Z,99696.78
2019-03-20T11:47:34.045Z,99699.64
2019-03-20T11:51:38.950Z,99687.72
2019-03-20T11:55:43.856Z,99686.85
2019-03-20T11:59:48.842Z,99681.05
2019-03-20T12:03:53.740Z,99669.05
2019-03-20T12:07:58.649Z,99665.63
2019-03-20T12:12:03.557Z,99667.27
2019-03-20T12:16:08.470Z,99665.84
2019-03-20T12:20:22.881Z,99661.20
2019-03-20T12:24:27.776Z,99658.87
2019-03-20T12:28:32.679Z,99661.53
2019-03-20T12:32:37.588Z,99658.77
2019-03-20T12:36:42.494Z,99667.42
2019-03-20T12:40:47.405Z,99664.70
2019-03-20T12:44:52.296Z,99655.49
2019-03-20T12:48:59.691Z,99660.22
2019-03-20T12:53:04.483Z,99656.53
2019-03-20T12:57:09.397Z,99658.02
2019-03-20T13:01:14.298Z,99655.92
2019-03-20T13:05:19.631Z,99650.77
2019-03-20T13:09:24.537Z,99650.57
2019-03-20T13:13:29.448Z,99643.79
2019-03-20T13:17:34.359Z,99657.25
2019-03-20T13:21:39.266Z,99652.10
2019-03-20T13:25:44.172Z,99643.67
2019-03-20T13:29:49.074Z,99640.12
2019-03-20T13:33:53.988Z,99637.39
2019-03-20T13:37:58.879Z,99632.05
2019-03-20T13:42:04.857Z,99633.78
2019-03-20T13:46:09.746Z,99631.71
2019-03-20T13:50:15.489Z,99627.20
2019-03-20T13:54:20.393Z,99621.06
2019-03-20T13:58:25.323Z,99628.78
2019-03-20T14:02:30.229Z,99622.91
2019-03-20T14:06:35.123Z,99630.66
2019-03-20T14:10:50.418Z,99624.50
2019-03-20T14:14:46.632Z,99616.75
2019-03-20T14:18:51.528Z,99622.53
2019-03-20T14:22:56.424Z,99618.52
2019-03-20T14:27:01.322Z,99614.45
2019-03-20T14:31:06.221Z,99611.66
2019-03-20T14:35:11.122Z,99610.09
2019-03-20T14:39:16.021Z,99619.60
2019-03-20T14:43:20.922Z,99617.33
2019-03-20T14:47:25.804Z,99616.75
2019-03-20T14:51:30.707Z,99604.73
2019-03-20T14:55:35.605Z,99608.55
2019-03-20T14:59:40.509Z,99633.20
2019-03-20T15:03:45.415Z,99638.11
2019-03-20T15:07:50.302Z,99632.42
2019-03-20T15:11:56.161Z,99631.55
2019-03-20T15:16:04.103Z,99619.80
2019-03-20T15:20:09.071Z,99622.05
2019-03-20T15:24:13.965Z,99621.21
2019-03-20T15:28:18.860Z,99624.68
2019-03-20T15:32:23.761Z,99622.05
2019-03-20T15:36:28.663Z,99630.59
2019-03-20T15:40:33.571Z,99624.70
2019-03-20T15:44:38.483Z,99635.75
2019-03-20T15:48:43.379Z,99618.16
2019-03-20T15:52:48.357Z,99625.71
2019-03-20T15:56:53.283Z,99623.36
2019-03-20T16:00:58.183Z,99616.25
2019-03-20T16:05:03.097Z,99622.38
2019-03-20T16:09:08.942Z,99617.12
2019-03-20T16:13:14.019Z,99614.15
2019-03-20T16:17:18.931Z,99612.55
2019-03-20T16:21:23.872Z,99611.82
2019-03-20T16:25:28.818Z,99612.37
2019-03-20T16:29:33.719Z,99605.59
2019-03-20T16:33:38.613Z,99607.45
2019-03-20T16:37:43.646Z,99602.83
2019-03-20T16:41:48.536Z,99605.16
2019-03-20T16:45:53.442Z,99607.88
2019-03-20T16:49:58.323Z,99610.61
2019-03-20T16:54:04.201Z,99610.45
2019-03-20T16:58:09.094Z,99608.45
2019-03-20T17:02:14.967Z,99604.77
2019-03-20T17:06:19.871Z,99609.77
2019-03-20T17:10:36.093Z,99611.25
2019-03-20T17:14:41.829Z,99612.34
2019-03-20T17:18:46.767Z,99617.76
2019-03-20T17:22:51.680Z,99624.47
2019-03-20T17:26:56.584Z,99621.17
2019-03-20T17:31:01.490Z,99610.43
2019-03-20T17:35:08.615Z,99613.29
2019-03-20T17:39:13.517Z,99616.58
2019-03-20T17:43:18.565Z,99626.41
2019-03-20T17:47:23.474Z,99629.69
2019-03-20T17:51:28.382Z,99641.67
2019-03-20T17:55:33.349Z,99639.31
2019-03-20T17:59:38.263Z,99639.48
2019-03-20T18:03:43.179Z,99650.17
2019-03-20T18:07:48.086Z,99655.63
2019-03-20T18:11:52.988Z,99667.66
2019-03-20T18:15:57.948Z,99667.00
2019-03-20T18:20:03.016Z,99669.81
2019-03-20T18:24:07.988Z,99669.08
2019-03-20T18:28:12.887Z,99670.05
2019-03-20T18:32:17.785Z,99680.99
2019-03-20T18:36:22.852Z,99676.77
2019-03-20T18:40:28.490Z,99685.09
2019-03-20T18:44:33.460Z,99689.46
2019-03-20T18:48:38.351Z,99686.02
2019-03-20T18:52:43.247Z,99689.11
2019-03-20T18:56:48.137Z,99688.23
2019-03-20T19:00:53.024Z,99681.78
2019-03-20T19:04:57.933Z,99689.20
2019-03-20T19:09:03.108Z,99689.23
2019-03-20T19:13:09.612Z,99689.67
2019-03-20T19:17:14.504Z,99696.20
2019-03-20T19:21:19.389Z,99693.19
2019-03-20T19:25:24.280Z,99703.59
2019-03-20T19:29:29.186Z,99704.88
2019-03-20T19:33:34.164Z,99707.03
2019-03-20T19:37:39.054Z,99700.94
2019-03-20T19:41:43.952Z,99710.90
2019-03-20T19:45:48.852Z,99714.32
2019-03-20T19:49:53.754Z,99729.44
2019-03-20T19:53:58.647Z,99731.15
2019-03-20T19:58:03.608Z,99716.88
2019-03-20T20:02:08.507Z,99719.46
2019-03-20T20:06:13.427Z,99733.77
2019-03-20T20:10:19.070Z,99729.42
2019-03-20T20:14:23.979Z,99733.73
2019-03-20T20:18:28.932Z,99737.61
2019-03-20T20:22:33.827Z,99734.09
2019-03-20T20:26:38.728Z,99744.02
2019-03-20T20:30:43.622Z,99737.80
2019-03-20T20:34:48.556Z,99740.39
2019-03-20T20:38:53.451Z,99743.45
2019-03-20T20:42:58.348Z,99739.11
2019-03-20T20:47:03.245Z,99745.48
2019-03-20T20:51:08.145Z,99753.08
2019-03-20T20:55:15.253Z,99747.28
2019-03-20T20:59:20.145Z,99745.11
2019-03-20T21:03:25.045Z,99738.09
2019-03-20T21:07:29.941Z,99744.13
2019-03-20T21:11:34.839Z,99735.84
2019-03-20T21:15:41.592Z,99733.73
2019-03-20T21:19:46.488Z,99743.23
2019-03-20T21:24:25.038Z,99745.20
2019-03-20T21:28:52.805Z,99742.25
2019-03-20T21:33:00.755Z,99742.60
2019-03-20T21:37:11.388Z,99740.43
2019-03-20T21:41:19.342Z,99746.88
2019-03-20T21:45:32.943Z,99745.95
2019-03-20T21:49:37.850Z,99755.86
2019-03-20T21:54:13.211Z,99759.75
2019-03-20T21:58:23.967Z,99760.09
2019-03-20T22:02:47.289Z,99764.73
2019-03-20T22:07:09.941Z,99767.61
2019-03-20T22:11:29.585Z,99765.31
2019-03-20T22:15:55.825Z,99765.67
2019-03-20T22:20:12.483Z,99767.55
2019-03-20T22:24:20.436Z,99765.07
2019-03-20T22:28:49.558Z,99763.83
2019-03-20T22:33:20.081Z,99758.16
2019-03-20T22:37:24.980Z,99754.46
2019-03-20T22:41:41.884Z,99749.94
2019-03-20T22:46:12.685Z,99750.18
2019-03-20T22:50:26.602Z,99751.98
2019-03-20T22:54:52.711Z,99750.83
2019-03-20T22:58:57.608Z,99751.78
2019-03-20T23:03:14.325Z,99747.44
2019-03-20T23:07:19.518Z,99742.59
2019-03-20T23:11:24.404Z,99742.48
2019-03-20T23:15:29.306Z,99744.14
2019-03-20T23:19:34.547Z,99750.63
2019-03-20T23:23:40.408Z,99747.13
2019-03-20T23:27:45.306Z,99739.38
2019-03-20T23:31:50.194Z,99739.38
2019-03-20T23:35:55.095Z,99734.56
2019-03-20T23:39:59.990Z,99740.11
2019-03-20T23:44:04.957Z,99737.91
2019-03-20T23:48:15.732Z,99736.34
2019-03-20T23:52:20.610Z,99731.48
2019-03-20T23:56:27.346Z,99737.27
